createdAt,value
2023-03-22T00:01:17.737Z,46.23
2023-03-22T00:03:44.679Z,46.46
2023-03-22T00:06:11.677Z,46.31
2023-03-22T00:08:38.610Z,46.39
2023-03-22T00:11:05.521Z,46.37
2023-03-22T00:13:33.893Z,46.42
2023-03-22T00:16:02.298Z,46.42
2023-03-22T00:18:29.223Z,46.30
2023-03-22T00:20:56.137Z,46.39
2023-03-22T00:23:23.092Z,46.47
2023-03-22T00:25:50.008Z,46.42
2023-03-22T00:28:16.933Z,46.37
2023-03-22T00:30:43.825Z,46.63
2023-03-22T00:33:12.378Z,46.64
2023-03-22T00:35:39.346Z,46.60
2023-03-22T00:38:06.369Z,46.69
2023-03-22T00:40:33.337Z,46.58
2023-03-22T00:43:00.258Z,46.52
2023-03-22T00:45:27.232Z,46.50
2023-03-22T00:47:54.183Z,46.63
2023-03-22T00:50:21.164Z,46.83
2023-03-22T00:52:48.103Z,46.79
2023-03-22T00:55:15.013Z,46.65
2023-03-22T00:57:41.972Z,46.80
2023-03-22T01:00:08.920Z,46.54
2023-03-22T01:02:35.886Z,46.62
2023-03-22T01:05:02.853Z,46.70
2023-03-22T01:07:29.773Z,46.67
2023-03-22T01:09:56.693Z,46.82
2023-03-22T01:12:23.619Z,46.75
2023-03-22T01:14:50.620Z,46.54
2023-03-22T01:17:17.536Z,46.87
2023-03-22T01:19:44.503Z,46.60
2023-03-22T01:22:11.468Z,46.70
2023-03-22T01:24:38.437Z,46.81
2023-03-22T01:27:05.378Z,46.88
2023-03-22T01:29:32.311Z,46.91
2023-03-22T01:31:59.274Z,46.89
2023-03-22T01:34:26.240Z,46.87
2023-03-22T01:36:53.198Z,46.78
2023-03-22T01:39:20.183Z,46.94
2023-03-22T01:41:47.242Z,46.81
2023-03-22T01:44:14.205Z,47.05
2023-03-22T01:46:41.213Z,46.69
2023-03-22T01:49:08.266Z,46.71
2023-03-22T01:51:35.247Z,46.85
2023-03-22T01:54:02.360Z,46.69
2023-03-22T01:56:29.319Z,46.81
2023-03-22T01:58:56.276Z,46.96
2023-03-22T02:01:23.199Z,46.98
2023-03-22T02:03:50.136Z,47.11
2023-03-22T02:06:17.109Z,47.00
2023-03-22T02:08:44.037Z,46.92
2023-03-22T02:11:11.011Z,46.81
2023-03-22T02:13:37.953Z,46.86
2023-03-22T02:16:04.927Z,46.84
2023-03-22T02:18:33.039Z,46.83
2023-03-22T02:21:02.304Z,46.63
2023-03-22T02:23:29.524Z,46.64
2023-03-22T02:25:56.438Z,46.60
2023-03-22T02:28:23.386Z,46.79
2023-03-22T02:30:50.405Z,46.58
2023-03-22T02:33:17.414Z,46.61
2023-03-22T02:35:44.415Z,46.77
2023-03-22T02:38:11.358Z,46.55
2023-03-22T02:40:38.729Z,46.61
2023-03-22T02:43:05.796Z,46.69
2023-03-22T02:45:32.756Z,46.84
2023-03-22T02:47:59.672Z,46.60
2023-03-22T02:50:26.649Z,46.69
2023-03-22T02:52:53.583Z,46.72
2023-03-22T02:55:20.500Z,46.72
2023-03-22T02:57:48.885Z,46.71
2023-03-22T03:00:15.819Z,46.86
2023-03-22T03:02:42.765Z,46.97
2023-03-22T03:05:09.710Z,46.91
2023-03-22T03:07:36.641Z,47.02
2023-03-22T03:10:03.579Z,47.09
2023-03-22T03:12:30.488Z,46.93
2023-03-22T03:14:57.430Z,47.07
2023-03-22T03:17:24.351Z,47.09
2023-03-22T03:19:51.301Z,47.10
2023-03-22T03:22:18.239Z,46.97
2023-03-22T03:24:45.208Z,47.24
2023-03-22T03:27:12.120Z,47.09
2023-03-22T03:29:39.075Z,47.11
2023-03-22T03:32:06.027Z,47.08
2023-03-22T03:34:32.969Z,47.14
2023-03-22T03:36:59.923Z,46.95
2023-03-22T03:39:26.840Z,46.98
2023-03-22T03:41:53.914Z,46.78
2023-03-22T03:44:20.844Z,47.02
2023-03-22T03:46:47.786Z,46.92
2023-03-22T03:49:14.759Z,46.83
2023-03-22T03:51:41.877Z,46.86
2023-03-22T03:54:08.818Z,46.71
2023-03-22T03:56:35.716Z,46.61
2023-03-22T03:59:02.625Z,46.85
2023-03-22T04:01:29.547Z,46.66
2023-03-22T04:03:56.505Z,46.50
2023-03-22T04:06:23.433Z,46.62
2023-03-22T04:08:51.472Z,46.64
2023-03-22T04:11:18.373Z,46.43
2023-03-22T04:13:45.349Z,46.47
2023-03-22T04:16:12.286Z,46.44
2023-03-22T04:18:39.262Z,46.40
2023-03-22T04:21:06.154Z,46.43
2023-03-22T04:23:33.149Z,46.60
2023-03-22T04:26:01.425Z,46.43
2023-03-22T04:28:28.367Z,46.54
2023-03-22T04:30:55.307Z,46.61
2023-03-22T04:33:22.216Z,46.39
2023-03-22T04:35:49.173Z,46.54
2023-03-22T04:38:16.104Z,46.50
2023-03-22T04:40:43.070Z,46.41
2023-03-22T04:43:11.597Z,46.37
2023-03-22T04:45:40.120Z,46.37
2023-03-22T04:48:07.141Z,46.51
2023-03-22T04:50:34.086Z,46.55
2023-03-22T04:53:01.054Z,46.34
2023-03-22T04:55:27.949Z,46.33
2023-03-22T04:57:54.963Z,46.40
2023-03-22T05:00:21.918Z,46.45
2023-03-22T05:02:48.899Z,46.34
2023-03-22T05:05:15.848Z,46.39
2023-03-22T05:07:42.806Z,46.25
2023-03-22T05:10:09.736Z,46.24
2023-03-22T05:12:36.709Z,46.40
2023-03-22T05:15:03.658Z,46.26
2023-03-22T05:17:30.647Z,46.31
2023-03-22T05:19:57.631Z,46.22
2023-03-22T05:22:24.572Z,46.35
2023-03-22T05:24:51.559Z,46.28
2023-03-22T05:27:18.513Z,46.39
2023-03-22T05:29:45.457Z,46.38
2023-03-22T05:32:15.215Z,46.48
2023-03-22T05:34:42.167Z,46.47
2023-03-22T05:37:09.106Z,46.50
2023-03-22T05:39:37.120Z,46.55
2023-03-22T05:42:04.099Z,46.53
2023-03-22T05:44:31.067Z,46.39
2023-03-22T05:46:59.044Z,46.64
2023-03-22T05:49:26.079Z,46.38
2023-03-22T05:51:53.026Z,46.54
2023-03-22T05:54:19.955Z,46.67
2023-03-22T05:56:46.922Z,46.63
2023-03-22T05:59:15.204Z,46.55
2023-03-22T06:01:42.188Z,46.85
2023-03-22T06:04:09.209Z,46.76
2023-03-22T06:06:36.177Z,46.66
2023-03-22T06:09:15.944Z,46.98
2023-03-22T06:11:43.968Z,46.91
2023-03-22T06:14:10.953Z,46.97
2023-03-22T06:16:38.057Z,47.10
2023-03-22T06:19:05.018Z,47.14
2023-03-22T06:21:31.967Z,47.23
2023-03-22T06:23:58.918Z,47.35
2023-03-22T06:26:25.854Z,47.40
2023-03-22T06:28:52.809Z,47.44
2023-03-22T06:31:19.811Z,47.62
2023-03-22T06:33:46.817Z,47.69
2023-03-22T06:36:13.802Z,47.81
2023-03-22T06:38:40.722Z,47.81
2023-03-22T06:41:08.574Z,47.92
2023-03-22T06:43:35.508Z,48.05
2023-03-22T06:46:02.468Z,48.29
2023-03-22T06:48:29.513Z,48.33
2023-03-22T06:50:56.460Z,48.58
2023-03-22T06:53:23.387Z,48.70
2023-03-22T06:55:50.313Z,48.83
2023-03-22T06:58:17.253Z,48.95
2023-03-22T07:00:44.152Z,49.12
2023-03-22T07:03:11.078Z,49.31
2023-03-22T07:05:38.019Z,49.76
2023-03-22T07:08:04.951Z,50.37
2023-03-22T07:10:31.952Z,50.80
2023-03-22T07:12:58.949Z,50.71
2023-03-22T07:15:25.880Z,51.00
2023-03-22T07:17:53.184Z,51.05
2023-03-22T07:20:20.124Z,51.13
2023-03-22T07:22:47.075Z,51.29
2023-03-22T07:25:14.037Z,51.10
2023-03-22T07:27:40.992Z,51.22
2023-03-22T07:30:09.702Z,51.46
2023-03-22T07:32:36.913Z,51.43
2023-03-22T07:35:03.852Z,51.49
2023-03-22T07:37:30.766Z,51.36
2023-03-22T07:39:57.656Z,51.66
2023-03-22T07:42:24.578Z,51.50
2023-03-22T07:44:51.549Z,51.69
2023-03-22T07:47:27.175Z,51.63
2023-03-22T07:49:57.920Z,51.73
2023-03-22T07:52:24.876Z,51.65
2023-03-22T07:54:51.799Z,51.64
2023-03-22T07:57:18.746Z,51.54
2023-03-22T07:59:45.684Z,51.62
2023-03-22T08:02:12.650Z,51.45
2023-03-22T08:04:39.973Z,51.40
2023-03-22T08:07:06.884Z,51.44
2023-03-22T08:09:33.856Z,50.78
2023-03-22T08:12:00.765Z,50.67
2023-03-22T08:14:36.326Z,50.44
2023-03-22T08:17:03.823Z,50.38
2023-03-22T08:19:30.747Z,50.38
2023-03-22T08:21:57.724Z,50.24
2023-03-22T08:24:24.729Z,49.94
2023-03-22T08:26:51.710Z,50.08
2023-03-22T08:29:18.624Z,49.75
2023-03-22T08:31:45.620Z,49.40
2023-03-22T08:34:12.539Z,49.00
2023-03-22T08:36:39.464Z,48.62
2023-03-22T08:39:06.416Z,47.77
2023-03-22T08:41:33.365Z,47.47
2023-03-22T08:44:00.352Z,47.07
2023-03-22T08:46:27.337Z,45.90
2023-03-22T08:48:54.288Z,46.37
2023-03-22T08:51:21.213Z,46.03
2023-03-22T08:53:48.152Z,45.98
2023-03-22T08:56:15.091Z,45.68
2023-03-22T08:58:42.019Z,45.37
2023-03-22T09:01:09.054Z,45.08
2023-03-22T09:03:36.046Z,45.31
2023-03-22T09:06:03.001Z,44.62
2023-03-22T09:08:29.963Z,44.06
2023-03-22T09:10:56.952Z,44.13
2023-03-22T09:13:23.989Z,43.22
2023-03-22T09:15:50.946Z,42.99
2023-03-22T09:18:17.913Z,42.66
2023-03-22T09:20:44.823Z,42.61
2023-03-22T09:23:11.748Z,42.05
2023-03-22T09:25:38.834Z,41.40
2023-03-22T09:28:06.007Z,41.43
2023-03-22T09:30:32.988Z,41.04
2023-03-22T09:32:59.933Z,40.57
2023-03-22T09:35:26.912Z,40.24
2023-03-22T09:37:53.950Z,39.40
2023-03-22T09:40:20.851Z,39.00
2023-03-22T09:42:47.772Z,39.33
2023-03-22T09:45:14.793Z,39.24
2023-03-22T09:47:45.211Z,38.82
2023-03-22T09:50:12.442Z,38.75
2023-03-22T09:52:39.411Z,38.29
2023-03-22T09:55:06.336Z,38.43
2023-03-22T09:57:33.268Z,37.82
2023-03-22T10:00:00.217Z,37.96
2023-03-22T10:02:27.179Z,37.42
2023-03-22T10:04:54.138Z,36.77
2023-03-22T10:07:21.107Z,36.75
2023-03-22T10:09:48.006Z,36.07
2023-03-22T10:12:14.890Z,35.73
2023-03-22T10:14:41.924Z,34.28
2023-03-22T10:17:08.856Z,35.11
2023-03-22T10:19:40.064Z,35.24
2023-03-22T10:24:18.996Z,34.69
2023-03-22T10:25:11.384Z,34.61
2023-03-22T10:27:43.464Z,34.71
2023-03-22T10:30:38.983Z,35.17
2023-03-22T10:33:09.165Z,34.96
2023-03-22T10:35:36.163Z,35.38
2023-03-22T10:38:03.099Z,35.13
2023-03-22T10:40:30.072Z,35.15
2023-03-22T10:42:57.009Z,35.48
2023-03-22T10:45:23.958Z,35.56
2023-03-22T10:47:51.059Z,36.31
2023-03-22T10:50:18.061Z,35.25
2023-03-22T10:52:45.201Z,34.74
2023-03-22T10:55:12.134Z,33.91
2023-03-22T10:57:39.027Z,34.35
2023-03-22T11:00:05.964Z,34.07
2023-03-22T11:02:33.075Z,32.88
2023-03-22T11:05:00.406Z,32.57
2023-03-22T11:07:27.352Z,33.45
2023-03-22T11:09:54.285Z,34.55
2023-03-22T11:12:21.196Z,34.05
2023-03-22T11:14:48.114Z,32.77
2023-03-22T11:17:18.097Z,32.39
2023-03-22T11:19:45.055Z,33.07
2023-03-22T11:22:12.008Z,33.42
2023-03-22T11:24:38.955Z,33.73
2023-03-22T11:27:05.842Z,33.71
2023-03-22T11:29:32.808Z,34.61
2023-03-22T11:31:59.819Z,34.98
2023-03-22T11:34:26.837Z,35.16
2023-03-22T11:36:53.802Z,35.67
2023-03-22T11:39:20.719Z,34.92
2023-03-22T11:41:47.641Z,35.41
2023-03-22T11:44:14.709Z,35.27
2023-03-22T11:46:41.701Z,35.27
2023-03-22T12:07:09.715Z,37.23
2023-03-22T12:09:36.659Z,36.69
2023-03-22T12:12:03.569Z,36.46
2023-03-22T12:14:30.610Z,36.72
2023-03-22T12:16:57.540Z,37.18
2023-03-22T12:19:24.496Z,36.88
2023-03-22T12:21:51.451Z,37.14
2023-03-22T12:24:18.460Z,36.71
2023-03-22T12:26:45.421Z,37.48
2023-03-22T12:29:12.332Z,37.78
2023-03-22T12:31:39.407Z,36.29
2023-03-22T12:34:06.586Z,35.83
2023-03-22T12:36:33.550Z,36.51
2023-03-22T12:45:12.849Z,35.13
2023-03-22T12:47:39.828Z,35.88
2023-03-22T12:50:07.147Z,36.37
2023-03-22T12:52:44.660Z,36.12
2023-03-22T12:55:12.870Z,35.71
2023-03-22T12:57:39.803Z,36.06
2023-03-22T13:05:33.348Z,36.54
2023-03-22T13:08:36.954Z,35.65
2023-03-22T13:11:03.926Z,36.09
2023-03-22T13:13:30.867Z,35.74
2023-03-22T13:15:57.785Z,36.02
2023-03-22T13:18:33.029Z,36.49
2023-03-22T13:21:00.325Z,36.06
2023-03-22T13:23:27.317Z,36.47
2023-03-22T13:25:54.300Z,35.32
2023-03-22T13:28:21.234Z,35.28
2023-03-22T13:30:48.202Z,34.41
2023-03-22T13:33:15.155Z,33.71
2023-03-22T13:35:42.270Z,34.16
2023-03-22T13:38:09.444Z,34.36
2023-03-22T13:40:36.339Z,34.98
2023-03-22T13:43:03.284Z,35.28
2023-03-22T13:45:30.219Z,35.32
2023-03-22T13:47:57.358Z,35.52
2023-03-22T13:50:24.364Z,36.28
2023-03-22T13:52:51.348Z,36.08
2023-03-22T13:55:18.900Z,36.06
2023-03-22T13:57:45.948Z,36.21
2023-03-22T14:00:15.062Z,35.75
2023-03-22T14:02:42.857Z,35.90
2023-03-22T14:05:09.961Z,36.12
2023-03-22T14:07:36.889Z,35.25
2023-03-22T14:10:03.948Z,35.17
2023-03-22T14:12:30.867Z,34.96
2023-03-22T14:14:57.808Z,35.38
2023-03-22T14:17:24.807Z,36.12
2023-03-22T14:19:51.768Z,36.20
2023-03-22T14:53:55.294Z,35.46
2023-03-22T14:56:22.307Z,35.44
2023-03-22T14:58:49.341Z,35.54
2023-03-22T15:01:16.422Z,36.03
2023-03-22T15:03:44.825Z,35.95
2023-03-22T15:06:11.844Z,35.85
2023-03-22T15:08:38.946Z,36.17
2023-03-22T15:11:06.005Z,36.14
2023-03-22T15:13:33.024Z,36.28
2023-03-22T15:16:00.170Z,35.73
2023-03-22T15:18:27.542Z,35.92
2023-03-22T15:20:54.593Z,35.46
2023-03-22T15:23:21.639Z,34.64
2023-03-22T15:25:48.663Z,35.48
2023-03-22T15:28:15.796Z,34.86
2023-03-22T15:30:42.850Z,35.08
2023-03-22T15:33:09.873Z,35.22
2023-03-22T15:35:37.828Z,34.47
2023-03-22T15:38:06.175Z,34.90
2023-03-22T15:40:33.194Z,34.30
2023-03-22T15:43:00.250Z,33.93
2023-03-22T15:45:27.296Z,33.55
2023-03-22T15:47:54.432Z,33.83
2023-03-22T15:50:21.476Z,33.41
2023-03-22T15:52:49.693Z,33.48
2023-03-22T15:55:17.230Z,33.65
2023-03-22T15:57:44.919Z,33.59
2023-03-22T16:00:11.950Z,33.54
2023-03-22T16:02:38.962Z,34.15
2023-03-22T16:05:05.980Z,34.83
2023-03-22T16:07:33.012Z,34.72
2023-03-22T16:10:00.071Z,35.09
2023-03-22T16:12:27.174Z,35.44
2023-03-22T16:14:54.236Z,35.92
2023-03-22T16:17:21.273Z,36.41
2023-03-22T16:19:48.308Z,36.56
2023-03-22T16:22:15.584Z,35.92
2023-03-22T16:24:42.627Z,35.84
2023-03-22T16:27:09.664Z,36.46
2023-03-22T16:29:36.735Z,36.71
2023-03-22T16:32:03.762Z,36.56
2023-03-22T16:34:30.822Z,36.03
2023-03-22T16:37:01.510Z,36.06
2023-03-22T16:39:28.537Z,36.14
2023-03-22T16:41:55.552Z,35.94
2023-03-22T16:44:22.598Z,35.39
2023-03-22T16:46:49.672Z,35.62
2023-03-22T16:49:16.712Z,35.94
2023-03-22T16:51:43.767Z,35.56
2023-03-22T16:54:10.975Z,35.94
2023-03-22T16:56:38.028Z,35.84
2023-03-22T16:59:05.108Z,35.68
2023-03-22T17:01:32.179Z,36.18
2023-03-22T17:04:01.835Z,35.71
2023-03-22T17:06:28.894Z,36.29
2023-03-22T17:08:55.955Z,36.27
2023-03-22T17:11:23.129Z,36.62
2023-03-22T17:13:50.221Z,37.06
2023-03-22T17:16:17.359Z,36.96
2023-03-22T17:18:44.483Z,37.00
2023-03-22T17:21:14.481Z,37.22
2023-03-22T17:23:41.786Z,37.58
2023-03-22T17:26:08.869Z,37.41
2023-03-22T17:28:35.865Z,37.34
2023-03-22T17:31:02.957Z,37.50
2023-03-22T17:33:31.433Z,37.47
2023-03-22T17:35:58.587Z,37.41
2023-03-22T17:38:33.241Z,37.60
2023-03-22T17:41:06.406Z,37.63
2023-03-22T17:43:33.679Z,37.72
2023-03-22T17:46:33.177Z,37.69
2023-03-22T17:48:47.809Z,37.48
2023-03-22T17:51:14.813Z,37.69
2023-03-22T17:54:35.462Z,37.77
2023-03-22T17:57:03.609Z,37.76
2023-03-22T17:59:15.981Z,37.98
2023-03-22T18:01:43.254Z,37.71
2023-03-22T18:06:37.447Z,38.09
2023-03-22T18:09:04.590Z,38.02
2023-03-22T18:11:31.718Z,38.02
2023-03-22T18:14:13.781Z,37.93
2023-03-22T18:16:53.200Z,38.16
2023-03-22T18:19:21.148Z,37.95
2023-03-22T18:21:48.405Z,38.21
2023-03-22T18:24:15.466Z,38.24
2023-03-22T18:26:57.385Z,38.02
2023-03-22T18:29:29.476Z,38.58
2023-03-22T18:31:56.541Z,38.23
2023-03-22T18:34:23.856Z,38.35
2023-03-22T18:36:50.938Z,38.25
2023-03-22T18:40:04.543Z,38.34
2023-03-22T18:42:16.693Z,38.42
2023-03-22T18:44:46.670Z,38.59
2023-03-22T18:47:13.697Z,38.87
2023-03-22T18:49:40.778Z,38.67
2023-03-22T18:54:39.047Z,39.07
2023-03-22T18:57:07.179Z,39.14
2023-03-22T18:59:34.795Z,39.22
2023-03-22T19:02:09.998Z,39.17
2023-03-22T19:04:39.125Z,39.36
2023-03-22T19:07:06.279Z,39.19
2023-03-22T19:09:33.369Z,39.15
2023-03-22T19:12:00.471Z,39.29
2023-03-22T19:15:14.893Z,39.42
2023-03-22T19:17:14.670Z,39.30
2023-03-22T19:19:41.775Z,39.57
2023-03-22T19:22:08.842Z,39.50
2023-03-22T19:24:35.978Z,39.53
2023-03-22T19:27:16.856Z,39.66
2023-03-22T19:29:46.207Z,39.88
2023-03-22T19:32:13.324Z,39.65
2023-03-22T19:34:40.461Z,39.74
2023-03-22T19:37:07.604Z,39.85
2023-03-22T19:39:34.851Z,40.00
2023-03-22T19:42:06.544Z,39.97
2023-03-22T19:44:33.881Z,39.99
2023-03-22T19:47:00.985Z,40.02
2023-03-22T19:49:28.027Z,40.17
2023-03-22T19:51:55.096Z,40.31
2023-03-22T19:56:51.203Z,40.53
2023-03-22T19:59:18.653Z,40.29
2023-03-22T20:01:46.605Z,40.53
2023-03-22T20:04:13.632Z,40.47
2023-03-22T20:06:41.198Z,40.65
2023-03-22T20:09:08.209Z,40.46
2023-03-22T20:11:43.444Z,40.49
2023-03-22T20:14:10.765Z,40.62
2023-03-22T20:16:37.825Z,40.63
2023-03-22T20:19:04.853Z,40.74
2023-03-22T20:21:31.892Z,40.91
2023-03-22T20:23:59.010Z,40.81
2023-03-22T20:26:26.033Z,40.97
2023-03-22T20:28:53.107Z,41.11
2023-03-22T20:31:20.160Z,41.31
2023-03-22T20:33:47.218Z,41.19
2023-03-22T20:36:14.388Z,41.28
2023-03-22T20:38:41.416Z,41.57
2023-03-22T20:41:08.447Z,41.40
2023-03-22T20:43:35.445Z,41.39
2023-03-22T20:46:02.480Z,41.51
2023-03-22T20:48:29.505Z,41.87
2023-03-22T20:50:56.542Z,41.64
2023-03-22T20:53:23.542Z,41.75
2023-03-22T20:55:50.606Z,41.63
2023-03-22T20:58:17.642Z,41.61
2023-03-22T21:00:45.036Z,41.82
2023-03-22T21:03:12.213Z,41.81
2023-03-22T21:05:39.368Z,41.87
2023-03-22T21:08:06.639Z,41.93
2023-03-22T21:10:33.689Z,42.07
2023-03-22T21:13:00.918Z,42.22
2023-03-22T21:15:28.245Z,42.38
2023-03-22T21:17:55.349Z,42.59
2023-03-22T21:20:32.281Z,42.71
2023-03-22T21:22:59.834Z,42.92
2023-03-22T21:25:26.877Z,42.95
2023-03-22T21:27:53.926Z,42.73
2023-03-22T21:30:20.973Z,42.88
2023-03-22T21:32:47.996Z,42.86
2023-03-22T21:35:15.036Z,43.13
2023-03-22T21:37:42.127Z,43.07
2023-03-22T21:40:09.210Z,43.03
2023-03-22T21:42:36.976Z,42.70
2023-03-22T21:45:04.097Z,42.98
2023-03-22T21:47:31.193Z,43.05
2023-03-22T21:49:58.199Z,42.92
2023-03-22T21:52:25.517Z,43.03
2023-03-22T21:54:52.545Z,42.88
2023-03-22T21:57:20.884Z,43.04
2023-03-22T21:59:47.969Z,42.96
2023-03-22T22:02:15.059Z,42.87
2023-03-22T22:04:42.106Z,42.77
2023-03-22T22:07:09.233Z,42.70
2023-03-22T22:09:36.285Z,42.94
2023-03-22T22:12:05.559Z,43.19
2023-03-22T22:14:32.733Z,42.99
2023-03-22T22:16:59.974Z,43.00
2023-03-22T22:19:27.024Z,43.15
2023-03-22T22:21:57.016Z,43.05
2023-03-22T22:24:24.189Z,42.83
2023-03-22T22:26:51.401Z,43.06
2023-03-22T22:29:18.516Z,43.17
2023-03-22T22:31:45.794Z,43.16
2023-03-22T22:34:12.831Z,43.13
2023-03-22T22:36:39.883Z,43.07
2023-03-22T22:39:06.923Z,43.14
2023-03-22T22:41:34.153Z,43.18
2023-03-22T22:44:01.205Z,43.26
2023-03-22T22:46:28.308Z,43.15
2023-03-22T22:48:55.644Z,43.12
2023-03-22T22:51:22.758Z,43.52
2023-03-22T22:53:49.799Z,43.49
2023-03-22T22:56:17.156Z,43.26
2023-03-22T22:58:44.171Z,43.52
2023-03-22T23:01:11.220Z,43.41
2023-03-22T23:03:38.583Z,43.40
2023-03-22T23:06:06.425Z,43.38
2023-03-22T23:08:33.537Z,43.33
2023-03-22T23:11:00.584Z,43.43
2023-03-22T23:13:27.598Z,43.43
2023-03-22T23:15:54.989Z,43.31
2023-03-22T23:18:22.044Z,43.40
2023-03-22T23:20:49.078Z,43.58
2023-03-22T23:23:16.121Z,43.44
2023-03-22T23:25:43.187Z,43.42
2023-03-22T23:28:10.241Z,43.42
2023-03-22T23:30:37.265Z,43.56
2023-03-22T23:33:04.278Z,43.52
2023-03-22T23:35:31.458Z,43.41
2023-03-22T23:37:59.886Z,43.41
2023-03-22T23:40:27.432Z,43.50
2023-03-22T23:42:54.432Z,43.50
2023-03-22T23:45:21.687Z,43.62
2023-03-22T23:47:48.709Z,43.77
2023-03-22T23:50:15.749Z,43.78
2023-03-22T23:52:42.771Z,43.99
2023-03-22T23:55:09.797Z,43.89
2023-03-22T23:57:36.821Z,44.12
